createdAt,value
2022-08-26T00:02:00.392Z,12.18
2022-08-26T00:04:29.174Z,11.80
2022-08-26T00:06:57.635Z,11.88
2022-08-26T00:09:26.767Z,11.50
2022-08-26T00:11:58.257Z,13.13
2022-08-26T00:14:31.219Z,12.57
2022-08-26T00:17:01.059Z,12.00
2022-08-26T00:19:29.209Z,12.05
2022-08-26T00:21:57.569Z,12.23
2022-08-26T00:24:25.549Z,10.80
2022-08-26T00:26:53.857Z,11.43
2022-08-26T00:29:21.935Z,12.13
2022-08-26T00:31:50.576Z,12.05
2022-08-26T00:34:20.292Z,11.68
2022-08-26T00:36:52.065Z,12.18
2022-08-26T00:39:21.033Z,12.43
2022-08-26T00:41:50.076Z,11.65
2022-08-26T00:44:19.184Z,12.00
2022-08-26T00:46:52.074Z,12.43
2022-08-26T00:49:29.573Z,12.27
2022-08-26T00:52:00.008Z,11.98
2022-08-26T00:54:32.316Z,12.05
2022-08-26T00:57:03.904Z,13.00
2022-08-26T00:59:33.300Z,12.50
2022-08-26T01:02:02.895Z,12.43
2022-08-26T01:04:35.869Z,12.52
2022-08-26T01:07:05.308Z,12.98
2022-08-26T01:09:34.308Z,12.55
2022-08-26T01:12:04.132Z,12.70
2022-08-26T01:14:34.948Z,11.10
2022-08-26T01:17:07.226Z,11.75
2022-08-26T01:19:43.492Z,12.30
2022-08-26T01:22:15.164Z,11.80
2022-08-26T01:24:44.753Z,12.55
2022-08-26T01:27:17.048Z,11.98
2022-08-26T01:29:48.136Z,12.00
2022-08-26T01:32:20.813Z,11.02
2022-08-26T01:34:49.577Z,10.35
2022-08-26T01:37:20.535Z,10.52
2022-08-26T01:39:54.385Z,11.13
2022-08-26T01:42:24.384Z,10.18
2022-08-26T01:44:57.287Z,11.52
2022-08-26T01:47:28.579Z,11.35
2022-08-26T01:50:00.746Z,11.45
2022-08-26T01:52:31.316Z,11.20
2022-08-26T01:55:01.708Z,11.50
2022-08-26T01:57:30.635Z,11.07
2022-08-26T02:00:02.596Z,11.30
2022-08-26T02:02:30.783Z,12.25
2022-08-26T02:05:01.860Z,10.60
2022-08-26T02:07:30.583Z,10.02
2022-08-26T02:10:04.539Z,10.05
2022-08-26T02:12:33.651Z,10.30
2022-08-26T02:15:05.682Z,10.40
2022-08-26T02:17:39.171Z,10.38
2022-08-26T02:20:13.384Z,10.35
2022-08-26T02:22:45.028Z,10.40
2022-08-26T02:25:20.757Z,10.70
2022-08-26T02:27:49.146Z,9.48
2022-08-26T02:30:20.628Z,9.93
2022-08-26T02:32:49.644Z,10.25
2022-08-26T02:35:20.369Z,9.80
2022-08-26T02:37:49.463Z,9.50
2022-08-26T02:40:21.675Z,9.73
2022-08-26T02:42:49.865Z,9.85
2022-08-26T02:45:23.331Z,10.07
2022-08-26T02:47:52.923Z,9.60
2022-08-26T02:50:22.583Z,10.27
2022-08-26T02:52:51.332Z,9.95
2022-08-26T02:55:21.427Z,10.27
2022-08-26T02:57:53.065Z,9.80
2022-08-26T03:00:21.653Z,10.10
2022-08-26T03:02:52.550Z,9.73
2022-08-26T03:05:22.171Z,10.15
2022-08-26T03:07:52.953Z,10.73
2022-08-26T03:10:23.781Z,9.95
2022-08-26T03:12:54.062Z,10.55
2022-08-26T03:15:22.485Z,10.52
2022-08-26T03:17:50.789Z,10.50
2022-08-26T03:20:19.163Z,10.80
2022-08-26T03:22:47.557Z,10.57
2022-08-26T03:25:18.957Z,11.15
2022-08-26T03:27:48.601Z,10.88
2022-08-26T03:30:46.343Z,11.27
2022-08-26T03:33:15.323Z,10.13
2022-08-26T03:35:45.169Z,10.70
2022-08-26T03:38:13.187Z,11.15
2022-08-26T03:40:42.485Z,11.20
2022-08-26T03:43:15.955Z,10.35
2022-08-26T03:45:44.645Z,10.88
2022-08-26T03:48:14.034Z,10.95
2022-08-26T03:50:42.865Z,10.45
2022-08-26T03:53:13.196Z,10.05
2022-08-26T03:55:43.191Z,10.90
2022-08-26T03:58:12.620Z,10.70
2022-08-26T04:00:40.691Z,11.13
2022-08-26T04:03:09.941Z,11.68
2022-08-26T04:05:39.062Z,12.50
2022-08-26T04:08:07.117Z,12.00
2022-08-26T04:10:38.378Z,11.73
2022-08-26T04:13:06.453Z,12.85
2022-08-26T04:15:35.814Z,11.63
2022-08-26T04:18:04.287Z,11.63
2022-08-26T04:20:32.364Z,12.85
2022-08-26T04:23:00.538Z,12.32
2022-08-26T04:25:28.876Z,12.07
2022-08-26T04:27:56.931Z,12.57
2022-08-26T04:30:25.376Z,12.70
2022-08-26T04:32:55.007Z,11.57
2022-08-26T04:35:26.037Z,12.25
2022-08-26T04:37:55.486Z,12.10
2022-08-26T04:40:23.943Z,12.27
2022-08-26T04:42:54.000Z,13.23
2022-08-26T04:45:22.751Z,11.85
2022-08-26T04:47:56.415Z,11.82
2022-08-26T04:50:25.777Z,12.70
2022-08-26T04:52:55.348Z,12.43
2022-08-26T04:55:38.241Z,13.02
2022-08-26T04:58:10.337Z,11.68
2022-08-26T05:00:39.413Z,12.75
2022-08-26T05:03:10.516Z,12.00
2022-08-26T05:05:41.106Z,12.18
2022-08-26T05:08:09.986Z,11.82
2022-08-26T05:10:43.602Z,12.13
2022-08-26T05:13:15.132Z,12.30
2022-08-26T05:15:44.561Z,12.10
2022-08-26T05:18:16.351Z,11.45
2022-08-26T05:20:47.895Z,12.07
2022-08-26T05:23:17.069Z,12.50
2022-08-26T05:25:47.728Z,12.30
2022-08-26T05:28:18.091Z,12.02
2022-08-26T05:30:47.123Z,11.95
2022-08-26T05:33:17.849Z,12.18
2022-08-26T05:35:46.922Z,12.15
2022-08-26T05:38:18.691Z,12.52
2022-08-26T05:40:49.576Z,11.55
2022-08-26T05:43:22.384Z,12.20
2022-08-26T05:45:51.919Z,12.15
2022-08-26T05:48:22.708Z,12.32
2022-08-26T05:50:55.663Z,12.02
2022-08-26T05:53:26.111Z,12.90
2022-08-26T05:55:56.219Z,13.32
2022-08-26T05:58:24.731Z,13.57
2022-08-26T06:01:00.271Z,13.40
2022-08-26T06:03:31.619Z,13.77
2022-08-26T06:05:59.931Z,13.95
2022-08-26T06:08:28.031Z,12.93
2022-08-26T06:11:00.279Z,13.35
2022-08-26T06:13:30.492Z,13.23
2022-08-26T06:16:03.241Z,13.20
2022-08-26T06:18:36.564Z,12.50
2022-08-26T06:21:14.913Z,13.07
2022-08-26T06:24:00.478Z,11.48
2022-08-26T06:26:29.078Z,11.32
2022-08-26T06:28:59.288Z,11.00
2022-08-26T06:31:27.825Z,10.63
2022-08-26T06:33:58.796Z,10.50
2022-08-26T06:36:30.502Z,9.77
2022-08-26T06:39:03.174Z,10.52
2022-08-26T06:41:33.606Z,10.35
2022-08-26T06:44:02.526Z,10.13
2022-08-26T06:46:31.046Z,9.73
2022-08-26T06:49:00.534Z,9.23
2022-08-26T06:51:30.218Z,9.60
2022-08-26T06:54:00.370Z,9.35
2022-08-26T06:56:30.283Z,9.20
2022-08-26T06:58:58.329Z,8.38
2022-08-26T07:01:28.091Z,7.82
2022-08-26T07:03:58.723Z,8.15
2022-08-26T07:06:29.294Z,7.38
2022-08-26T07:09:04.464Z,7.82
2022-08-26T07:11:33.703Z,6.97
2022-08-26T07:14:02.067Z,7.57
2022-08-26T07:16:33.430Z,6.70
2022-08-26T07:19:03.329Z,6.35
2022-08-26T07:21:33.043Z,6.53
2022-08-26T07:24:01.695Z,6.82
2022-08-26T07:26:31.646Z,6.88
2022-08-26T07:29:01.822Z,6.20
2022-08-26T07:31:37.371Z,5.88
2022-08-26T07:34:09.304Z,6.32
2022-08-26T07:36:39.403Z,6.43
2022-08-26T07:39:07.886Z,5.95
2022-08-26T07:41:36.553Z,6.68
2022-08-26T07:44:04.899Z,5.88
2022-08-26T07:46:33.544Z,5.32
2022-08-26T07:49:01.916Z,5.72
2022-08-26T07:51:31.867Z,5.45
2022-08-26T07:54:01.354Z,4.47
2022-08-26T07:56:29.379Z,5.32
2022-08-26T07:58:57.459Z,4.55
2022-08-26T08:01:27.057Z,4.65
2022-08-26T08:03:56.399Z,4.50
2022-08-26T08:06:28.168Z,4.28
2022-08-26T08:08:56.510Z,4.65
2022-08-26T08:11:27.248Z,4.60
2022-08-26T08:13:56.408Z,4.50
2022-08-26T08:16:25.935Z,4.38
2022-08-26T08:18:54.692Z,4.07
2022-08-26T08:21:24.459Z,4.20
2022-08-26T08:23:53.388Z,4.25
2022-08-26T08:26:24.765Z,4.00
2022-08-26T08:28:58.863Z,3.92
2022-08-26T08:31:56.051Z,4.55
2022-08-26T08:34:18.217Z,4.20
2022-08-26T08:36:46.757Z,4.38
2022-08-26T08:39:15.278Z,3.60
2022-08-26T08:41:55.255Z,3.90
2022-08-26T08:47:02.990Z,3.92
2022-08-26T08:49:32.048Z,3.50
2022-08-26T08:52:04.733Z,3.35
2022-08-26T08:54:33.924Z,3.80
2022-08-26T08:57:07.246Z,3.78
2022-08-26T08:59:42.234Z,3.28
2022-08-26T09:02:19.944Z,2.90
2022-08-26T09:05:15.042Z,3.50
2022-08-26T09:07:49.383Z,3.47
2022-08-26T09:10:32.122Z,3.10
2022-08-26T09:13:02.378Z,3.13
2022-08-26T09:15:46.607Z,3.38
2022-08-26T09:18:26.855Z,3.33
2022-08-26T09:20:59.468Z,3.47
2022-08-26T09:23:28.260Z,3.15
2022-08-26T09:25:59.491Z,3.20
2022-08-26T09:28:29.750Z,3.53
2022-08-26T09:31:11.535Z,3.30
2022-08-26T09:33:41.214Z,3.20
2022-08-26T09:36:39.354Z,3.22
2022-08-26T09:39:30.868Z,3.40
2022-08-26T09:42:11.767Z,3.03
2022-08-26T09:44:57.851Z,3.10
2022-08-26T09:47:31.721Z,3.20
2022-08-26T09:50:09.554Z,3.17
2022-08-26T09:52:40.308Z,3.30
2022-08-26T09:55:14.315Z,2.90
2022-08-26T09:57:49.614Z,3.13
2022-08-26T10:00:32.315Z,3.35
2022-08-26T10:03:05.285Z,2.88
2022-08-26T10:05:39.825Z,3.30
2022-08-26T10:08:24.466Z,3.20
2022-08-26T10:10:53.707Z,3.42
2022-08-26T10:13:29.465Z,3.40
2022-08-26T10:16:07.079Z,3.20
2022-08-26T10:18:44.560Z,3.92
2022-08-26T10:21:18.064Z,3.20
2022-08-26T10:23:50.616Z,3.13
2022-08-26T10:26:23.994Z,3.10
2022-08-26T10:28:57.343Z,2.95
2022-08-26T10:31:30.230Z,3.17
2022-08-26T10:34:08.103Z,3.33
2022-08-26T10:37:14.753Z,3.03
2022-08-26T10:39:46.229Z,3.05
2022-08-26T10:42:23.238Z,3.25
2022-08-26T10:44:58.547Z,2.92
2022-08-26T10:47:32.444Z,2.80
2022-08-26T10:50:03.647Z,3.35
2022-08-26T10:52:45.633Z,2.88
2022-08-26T10:55:20.112Z,2.80
2022-08-26T10:57:56.196Z,2.65
2022-08-26T11:00:48.131Z,2.85
2022-08-26T11:03:31.484Z,2.90
2022-08-26T11:06:24.522Z,2.70
2022-08-26T11:08:54.480Z,3.00
2022-08-26T11:11:46.851Z,3.00
2022-08-26T11:14:53.011Z,2.80
2022-08-26T11:17:56.421Z,2.92
2022-08-26T11:20:37.513Z,2.80
2022-08-26T11:23:50.398Z,3.17
2022-08-26T11:26:35.611Z,3.10
2022-08-26T11:29:13.117Z,3.40
2022-08-26T11:31:55.903Z,2.95
2022-08-26T11:34:55.107Z,2.67
2022-08-26T11:37:32.373Z,3.08
2022-08-26T11:40:04.552Z,2.53
2022-08-26T11:42:40.958Z,2.20
2022-08-26T11:45:19.740Z,2.13
2022-08-26T11:47:49.488Z,2.38
2022-08-26T11:50:21.589Z,2.53
2022-08-26T11:52:55.862Z,2.30
2022-08-26T11:55:24.509Z,2.60
2022-08-26T11:57:56.755Z,2.75
2022-08-26T12:00:28.393Z,2.58
2022-08-26T12:03:06.393Z,2.35
2022-08-26T12:05:39.770Z,2.53
2022-08-26T12:08:12.332Z,2.42
2022-08-26T12:10:40.724Z,2.38
2022-08-26T12:13:21.589Z,2.83
2022-08-26T12:15:55.789Z,2.55
2022-08-26T12:18:29.511Z,2.40
2022-08-26T12:21:00.641Z,2.17
2022-08-26T12:23:43.382Z,2.53
2022-08-26T12:26:15.276Z,2.25
2022-08-26T12:28:46.112Z,2.30
2022-08-26T12:31:25.120Z,2.00
2022-08-26T12:33:54.175Z,2.90
2022-08-26T12:36:27.651Z,2.72
2022-08-26T12:38:58.849Z,2.22
2022-08-26T12:41:40.699Z,2.10
2022-08-26T12:44:08.943Z,2.50
2022-08-26T12:46:37.559Z,2.28
2022-08-26T12:49:05.665Z,2.53
2022-08-26T12:51:35.333Z,2.50
2022-08-26T12:54:06.904Z,2.30
2022-08-26T12:56:39.645Z,2.38
2022-08-26T12:59:20.260Z,2.67
2022-08-26T13:01:49.581Z,2.47
2022-08-26T13:04:39.539Z,2.08
2022-08-26T13:07:22.460Z,1.98
2022-08-26T13:09:53.691Z,2.65
2022-08-26T13:12:30.575Z,2.60
2022-08-26T13:14:59.910Z,2.40
2022-08-26T13:17:28.844Z,1.95
2022-08-26T13:20:03.256Z,2.47
2022-08-26T13:22:33.784Z,2.40
2022-08-26T13:25:03.494Z,2.40
2022-08-26T13:27:31.741Z,2.60
2022-08-26T13:30:00.373Z,2.67
2022-08-26T13:32:28.884Z,2.58
2022-08-26T13:34:58.615Z,2.70
2022-08-26T13:37:35.241Z,2.75
2022-08-26T13:40:07.021Z,2.35
2022-08-26T13:42:35.327Z,2.67
2022-08-26T13:45:03.640Z,2.60
2022-08-26T13:47:31.983Z,2.28
2022-08-26T13:50:00.165Z,3.30
2022-08-26T13:52:30.521Z,2.47
2022-08-26T13:55:00.276Z,2.20
2022-08-26T13:57:30.608Z,3.00
2022-08-26T14:00:00.127Z,2.40
2022-08-26T14:02:29.020Z,2.55
2022-08-26T14:04:57.043Z,1.80
2022-08-26T14:07:25.413Z,2.42
2022-08-26T14:09:53.565Z,2.00
2022-08-26T14:12:21.629Z,2.40
2022-08-26T14:14:51.430Z,2.30
2022-08-26T14:17:22.690Z,2.30
2022-08-26T14:19:51.661Z,1.98
2022-08-26T14:22:23.073Z,2.60
2022-08-26T14:24:51.605Z,2.35
2022-08-26T14:27:19.769Z,2.20
2022-08-26T14:29:47.949Z,2.40
2022-08-26T14:32:22.967Z,2.38
2022-08-26T14:34:51.409Z,2.58
2022-08-26T14:37:20.101Z,3.03
2022-08-26T14:39:48.713Z,2.38
2022-08-26T14:42:20.941Z,2.45
2022-08-26T14:44:54.663Z,2.00
2022-08-26T14:47:24.263Z,2.25
2022-08-26T14:49:52.895Z,2.28
2022-08-26T14:52:21.479Z,1.92
2022-08-26T14:54:48.642Z,2.38
2022-08-26T14:57:23.295Z,2.40
2022-08-26T14:59:51.421Z,2.65
2022-08-26T15:02:19.752Z,2.20
2022-08-26T15:05:02.666Z,2.35
2022-08-26T15:07:31.233Z,2.35
2022-08-26T15:09:59.413Z,2.20
2022-08-26T15:12:27.873Z,2.70
2022-08-26T15:14:56.106Z,2.50
2022-08-26T15:17:24.266Z,2.75
2022-08-26T15:19:53.401Z,2.47
2022-08-26T15:22:22.897Z,2.85
2022-08-26T15:24:53.573Z,2.50
2022-08-26T15:27:22.249Z,2.50
2022-08-26T15:29:50.549Z,2.50
2022-08-26T15:32:19.177Z,2.40
2022-08-26T15:34:47.428Z,2.42
2022-08-26T15:37:15.577Z,2.40
2022-08-26T15:39:45.269Z,2.45
2022-08-26T15:42:13.542Z,2.58
2022-08-26T15:44:46.997Z,2.85
2022-08-26T15:47:15.166Z,2.38
2022-08-26T15:49:43.653Z,2.60
2022-08-26T15:52:12.137Z,2.50
2022-08-26T15:54:41.025Z,2.55
2022-08-26T15:57:12.349Z,2.40
2022-08-26T15:59:41.757Z,2.33
2022-08-26T16:02:10.085Z,2.40
2022-08-26T16:04:38.246Z,2.17
2022-08-26T16:07:06.457Z,2.15
2022-08-26T16:09:34.612Z,2.63
2022-08-26T16:12:02.759Z,2.60
2022-08-26T16:14:32.312Z,2.50
2022-08-26T16:17:00.379Z,2.50
2022-08-26T16:19:28.596Z,2.60
2022-08-26T16:21:56.634Z,2.40
2022-08-26T16:24:29.745Z,2.60
2022-08-26T16:26:58.976Z,2.28
2022-08-26T16:29:27.311Z,2.47
2022-08-26T16:31:56.709Z,2.72
2022-08-26T16:34:24.837Z,2.42
2022-08-26T16:36:53.294Z,2.67
2022-08-26T16:39:21.460Z,3.20
2022-08-26T16:41:49.484Z,2.75
2022-08-26T16:44:17.792Z,2.35
2022-08-26T16:46:46.137Z,2.63
2022-08-26T16:49:15.588Z,2.53
2022-08-26T16:51:43.713Z,2.75
2022-08-26T16:54:11.844Z,2.60
2022-08-26T16:56:40.648Z,3.10
2022-08-26T16:59:10.601Z,3.20
2022-08-26T17:01:38.838Z,3.10
2022-08-26T17:04:07.005Z,2.80
2022-08-26T17:06:36.832Z,3.22
2022-08-26T17:09:05.573Z,2.70
2022-08-26T17:11:34.176Z,2.83
2022-08-26T17:14:02.990Z,2.67
2022-08-26T17:16:31.192Z,2.60
2022-08-26T17:19:00.183Z,2.80
2022-08-26T17:21:30.895Z,3.03
2022-08-26T17:24:00.483Z,2.50
2022-08-26T17:26:28.856Z,2.90
2022-08-26T17:28:56.932Z,2.47
2022-08-26T17:31:25.518Z,2.38
2022-08-26T17:33:55.455Z,2.63
2022-08-26T17:36:27.633Z,2.90
2022-08-26T17:38:57.096Z,2.88
2022-08-26T17:41:27.751Z,2.53
2022-08-26T17:43:56.111Z,3.22
2022-08-26T17:46:24.504Z,2.78
2022-08-26T17:48:52.646Z,3.28
2022-08-26T17:51:20.995Z,2.92
2022-08-26T17:53:49.508Z,2.75
2022-08-26T17:56:19.976Z,2.90
2022-08-26T17:58:51.237Z,2.92
2022-08-26T18:01:20.304Z,3.47
2022-08-26T18:03:48.730Z,2.97
2022-08-26T18:06:17.114Z,3.17
2022-08-26T18:08:45.252Z,3.42
2022-08-26T18:11:15.460Z,3.95
2022-08-26T18:13:46.967Z,4.15
2022-08-26T18:16:18.989Z,4.03
2022-08-26T18:18:47.897Z,4.32
2022-08-26T18:21:18.040Z,4.30
2022-08-26T18:23:47.530Z,4.80
2022-08-26T18:26:20.609Z,3.78
2022-08-26T18:28:48.627Z,3.95
2022-08-26T18:31:18.644Z,4.40
2022-08-26T18:33:46.941Z,5.47
2022-08-26T18:36:19.590Z,4.50
2022-08-26T18:38:50.326Z,4.53
2022-08-26T18:41:20.693Z,5.03
2022-08-26T18:43:50.402Z,4.88
2022-08-26T18:46:21.017Z,4.85
2022-08-26T18:48:51.150Z,5.32
2022-08-26T18:51:21.347Z,5.05
2022-08-26T18:53:49.519Z,5.85
2022-08-26T18:56:18.691Z,6.20
2022-08-26T18:58:47.473Z,8.18
2022-08-26T19:01:16.512Z,7.35
2022-08-26T19:03:46.500Z,7.70
2022-08-26T19:06:15.568Z,6.72
2022-08-26T19:08:44.534Z,7.60
2022-08-26T19:11:13.887Z,7.13
2022-08-26T19:13:42.194Z,7.60
2022-08-26T19:16:16.565Z,7.40
2022-08-26T19:18:46.316Z,7.45
2022-08-26T19:21:15.208Z,6.72
2022-08-26T19:23:43.466Z,7.47
2022-08-26T19:26:12.520Z,7.30
2022-08-26T19:28:41.306Z,6.50
2022-08-26T19:31:10.810Z,6.82
2022-08-26T19:33:39.529Z,6.72
2022-08-26T19:36:15.046Z,6.40
2022-08-26T19:38:43.767Z,6.50
2022-08-26T19:41:13.542Z,5.85
2022-08-26T19:43:41.814Z,6.38
2022-08-26T19:46:12.743Z,5.88
2022-08-26T19:48:43.895Z,6.07
2022-08-26T19:51:15.670Z,6.50
2022-08-26T19:53:44.742Z,6.25
2022-08-26T19:56:13.471Z,6.78
2022-08-26T19:58:41.943Z,6.82
2022-08-26T20:01:10.973Z,7.53
2022-08-26T20:03:39.295Z,6.53
2022-08-26T20:06:09.654Z,7.47
2022-08-26T20:08:41.002Z,7.50
2022-08-26T20:11:12.198Z,7.13
2022-08-26T20:13:41.028Z,6.65
2022-08-26T20:16:10.321Z,6.65
2022-08-26T20:18:56.198Z,7.10
2022-08-26T20:21:27.223Z,7.43
2022-08-26T20:23:59.226Z,6.60
2022-08-26T20:26:28.057Z,7.18
2022-08-26T20:28:56.556Z,6.95
2022-08-26T20:31:25.347Z,6.95
2022-08-26T20:33:53.962Z,6.97
2022-08-26T20:36:24.649Z,6.93
2022-08-26T20:38:52.830Z,7.30
2022-08-26T20:41:24.144Z,7.30
2022-08-26T20:43:52.357Z,7.47
2022-08-26T20:46:24.556Z,7.93
2022-08-26T20:48:53.932Z,7.28
2022-08-26T20:51:23.631Z,7.47
2022-08-26T20:53:51.984Z,7.95
2022-08-26T20:56:24.470Z,6.65
2022-08-26T20:58:54.096Z,6.90
2022-08-26T21:01:28.057Z,7.25
2022-08-26T21:03:57.508Z,7.05
2022-08-26T21:06:26.035Z,6.80
2022-08-26T21:08:54.844Z,6.82
2022-08-26T21:11:25.805Z,8.32
2022-08-26T21:14:16.565Z,7.32
2022-08-26T21:16:43.467Z,7.43
2022-08-26T21:19:13.323Z,7.90
2022-08-26T21:21:41.803Z,8.07
2022-08-26T21:24:10.347Z,9.73
2022-08-26T21:26:39.836Z,8.38
2022-08-26T21:29:09.737Z,7.75
2022-08-26T21:31:44.946Z,7.63
2022-08-26T21:34:14.610Z,8.23
2022-08-26T21:36:42.651Z,9.35
2022-08-26T21:39:12.222Z,9.27
2022-08-26T21:41:43.415Z,10.40
2022-08-26T21:44:12.372Z,10.32
2022-08-26T21:46:41.204Z,10.68
2022-08-26T21:49:12.331Z,10.30
2022-08-26T21:51:42.905Z,10.18
2022-08-26T21:54:11.739Z,10.05
2022-08-26T21:56:44.323Z,9.95
2022-08-26T21:59:16.340Z,10.52
2022-08-26T22:01:44.543Z,8.80
2022-08-26T22:04:12.942Z,8.95
2022-08-26T22:06:43.372Z,7.43
2022-08-26T22:09:12.790Z,7.65
2022-08-26T22:11:42.274Z,7.95
2022-08-26T22:14:10.695Z,7.70
2022-08-26T22:16:39.077Z,9.15
2022-08-26T22:19:07.555Z,7.88
2022-08-26T22:21:40.419Z,7.43
2022-08-26T22:24:12.146Z,7.95
2022-08-26T22:26:40.439Z,8.00
2022-08-26T22:29:09.815Z,7.43
2022-08-26T22:31:38.785Z,6.88
2022-08-26T22:34:09.486Z,7.30
2022-08-26T22:36:42.984Z,7.50
2022-08-26T22:39:13.479Z,7.53
2022-08-26T22:41:42.164Z,7.43
2022-08-26T22:44:12.561Z,7.43
2022-08-26T22:46:42.458Z,7.45
2022-08-26T22:49:12.135Z,8.32
2022-08-26T22:51:40.306Z,7.53
2022-08-26T22:54:08.547Z,7.40
2022-08-26T22:56:38.081Z,7.57
2022-08-26T22:59:07.982Z,7.22
2022-08-26T23:01:39.280Z,7.22
2022-08-26T23:04:08.648Z,7.90
2022-08-26T23:06:38.146Z,7.25
2022-08-26T23:09:07.187Z,7.60
2022-08-26T23:11:35.849Z,7.63
2022-08-26T23:14:06.128Z,6.97
2022-08-26T23:16:39.107Z,7.78
2022-08-26T23:19:07.998Z,7.68
2022-08-26T23:21:36.091Z,7.60
2022-08-26T23:24:04.654Z,8.00
2022-08-26T23:26:32.913Z,7.95
2022-08-26T23:29:01.053Z,7.60
2022-08-26T23:31:29.330Z,6.90
2022-08-26T23:34:16.213Z,8.15
2022-08-26T23:36:46.325Z,7.78
2022-08-26T23:39:15.189Z,7.35
2022-08-26T23:41:43.799Z,6.97
2022-08-26T23:44:12.770Z,7.10
2022-08-26T23:46:41.245Z,7.55
2022-08-26T23:49:10.840Z,7.80
2022-08-26T23:51:57.347Z,7.80
2022-08-26T23:54:25.593Z,8.35
2022-08-26T23:56:53.701Z,8.82
2022-08-26T23:59:22.273Z,7.68
